EFSI

Seinäjoki Airport

Seinäjoki / Ilmajoki, Finland

EFSI 110850Z AUTO 15006KT 110V190 9999 OVC041 01/M02 Q0999

Observed Flight Rules
Dec-11 @ 08:50 UTC (45 minutes ago) Visual Flight Rules
Wind Visibility Clouds
150° at 6 knots 10,000+ meters
  • Overcast at 4,100' AGL
Temperatures Readings
Current 1°C / 34°F
Dewpoint -2°C / 28°F
Humidity 81%
Altimeter 29.5" Hg
Pressure 999 hPa
Elevation 91
Observed Flight Rules
Dec-11 @ 08:50 UTC
(45 minutes ago)
VFR
Wind Visibility
150° at 6 knots 10,000+ meters
Clouds
  • Overcast at 4,100' AGL
Temperature Dewpoint
1°C / 34°F -2°C / 28°F
Humidity Altimeter Pressure
81% 29.5" Hg 999 hPa